Search for airport 
image banner adimage banner adimage banner ad
image banner ad

P99 - W P H S

Located in Mount Pleasant, United States

ICAO - P99, IATA -

Data provided by Airmate  

General information

Coordinates: N40°6'29" W79°32'53"
Elevation is 1090 feet MSL.
Magnetic variation is -08° East
View others Airports in Pennsylvania

Operational data

Special qualification required
Current time UTC:
Current local time:
Weather at : KLBE - Arnold Palmer Rgnl ( 22 km )
METAR: KLBE 071247Z 00000KT 10SM SCT070 BKN085 BKN120 08/08 A2987
TAF: KLBE 071133Z 0712/0812 14003KT P6SM BKN070 FM071300 19005KT P6SM -SHRA OVC050 FM071500 24006KT 3SM -SHRA OVC025 FM071800 27007KT 5SM -SHRA OVC015 FM072100 30008KT P6SM BKN040 FM080600 22004KT P6SM VCSH BKN025
View NOTAMs / SUP AIP / TFR affecting this airport [VIEW]
Communications frequencies: [VIEW]

Runways:

Airport contact information

Address: Mount Pleasant United States

Satellite view of P99